Time;durP1;ratioP1;P1;durP2;ratioP2;P2;SDS_P1;SDS_P2;PMS_P1;PMS_P2;Temp;Humidity;BMP_temperature;BMP_pressure;BME280_temperature;BME280_humidity;BME280_pressure;Samples;Min_cycle;Max_cycle;Signal;HPM_P1;HPM_P2
2022/11/26 00:00:18;;;;;;;77.57;48.03;;;;;;;2.93;100.00;100184.19;5035947;28;20041;-89
2022/11/26 00:02:44;;;;;;;73.80;48.28;;;;;;;2.97;100.00;100179.88;5052443;28;20457;-89
2022/11/26 00:05:13;;;;;;;80.60;50.13;;;;;;;2.97;100.00;100178.16;5036088;28;20087;-89
2022/11/26 00:07:41;;;;;;;78.88;50.42;;;;;;;3.04;100.00;100176.41;5035994;28;20036;-89
2022/11/26 00:10:20;;;;;;;77.60;47.17;;;;;;;3.11;100.00;100185.78;5035678;28;20115;-89
2022/11/26 00:12:46;;;;;;;73.90;47.40;;;;;;;3.12;100.00;100184.94;5035423;28;20044;-89
2022/11/26 00:15:17;;;;;;;73.95;46.95;;;;;;;3.18;100.00;100182.31;5035681;28;20546;-89
2022/11/26 00:17:42;;;;;;;70.15;44.47;;;;;;;3.18;100.00;100187.44;5052204;28;20116;-89
2022/11/26 00:20:08;;;;;;;72.20;46.03;;;;;;;3.17;100.00;100180.59;5052462;28;20591;-89
2022/11/26 00:22:43;;;;;;;74.07;46.25;;;;;;;3.28;100.00;100188.22;5035344;28;20032;-89
2022/11/26 00:25:36;;;;;;;77.55;46.45;;;;;;;3.22;100.00;100165.97;5052392;28;20396;-89
2022/11/26 00:28:01;;;;;;;81.47;49.55;;;;;;;3.39;100.00;100191.56;5015277;28;20038;-89
2022/11/26 00:30:28;;;;;;;76.13;45.22;;;;;;;3.43;100.00;100193.25;5032310;28;20569;-89
2022/11/26 00:32:54;;;;;;;76.68;46.55;;;;;;;3.38;100.00;100179.56;5015396;28;20041;-89
2022/11/26 00:35:21;;;;;;;72.53;46.10;;;;;;;3.48;100.00;100198.34;5031979;28;20046;-89
2022/11/26 00:37:51;;;;;;;70.50;46.20;;;;;;;3.39;100.00;100177.84;5015312;28;20084;-89
2022/11/26 00:40:30;;;;;;;70.93;45.80;;;;;;;3.53;100.00;100198.31;5015426;28;20540;-89
2022/11/26 00:42:56;;;;;;;71.65;45.22;;;;;;;3.48;100.00;100186.31;5015080;28;20781;-88
2022/11/26 00:45:25;;;;;;;82.60;47.30;;;;;;;3.56;100.00;100198.28;5031947;28;20033;-89
2022/11/26 00:47:50;;;;;;;77.32;47.38;;;;;;;3.53;100.00;100188.00;5031577;28;20481;-89
2022/11/26 00:50:22;;;;;;;75.45;46.97;;;;;;;3.59;100.00;100198.28;5032017;28;20147;-89
2022/11/26 00:52:50;;;;;;;72.13;46.78;;;;;;;3.57;100.00;100194.84;5014962;28;20609;-89
2022/11/26 00:55:31;;;;;;;75.60;48.75;;;;;;;3.67;100.00;100199.91;5031939;28;20060;-89
2022/11/26 00:57:57;;;;;;;78.68;48.78;;;;;;;3.61;100.00;100192.22;5032797;28;20033;-89
2022/11/26 01:00:25;;;;;;;79.43;50.65;;;;;;;3.59;100.00;100191.41;5054235;28;20023;-88
2022/11/26 01:02:51;;;;;;;80.63;49.17;;;;;;;3.67;100.00;100197.31;5053718;28;20368;-88
2022/11/26 01:05:17;;;;;;;76.32;48.42;;;;;;;3.71;100.00;100205.88;5053859;28;20025;-89
2022/11/26 01:07:43;;;;;;;78.68;47.25;;;;;;;3.69;100.00;100202.44;5052789;28;20659;-89
2022/11/26 01:10:17;;;;;;;76.38;47.33;;;;;;;3.74;100.00;100200.69;5052741;28;20031;-89
2022/11/26 01:12:43;;;;;;;77.15;50.22;;;;;;;3.73;100.00;100198.97;5054018;28;20078;-89
2022/11/26 01:15:09;;;;;;;85.03;51.70;;;;;;;3.74;100.00;100209.25;5053816;28;20029;-89
2022/11/26 01:17:34;;;;;;;81.30;52.05;;;;;;;3.77;100.00;100204.97;5052391;28;20020;-89
2022/11/26 01:20:00;;;;;;;76.32;50.58;;;;;;;3.74;100.00;100198.09;5053700;28;20032;-89
2022/11/26 01:22:25;;;;;;;75.82;50.08;;;;;;;3.80;100.00;100202.34;5052421;28;20491;-89
2022/11/26 01:24:50;;;;;;;76.85;48.78;;;;;;;3.80;100.00;100204.94;5053424;28;20400;-88
2022/11/26 01:27:19;;;;;;;79.35;50.25;;;;;;;3.78;100.00;100194.63;5053654;28;20068;-89
2022/11/26 01:29:44;;;;;;;80.63;50.35;;;;;;;3.84;100.00;100210.03;5052310;28;20416;-88
2022/11/26 01:32:10;;;;;;;77.15;49.72;;;;;;;3.86;100.00;100210.88;5053045;28;20104;-89
2022/11/26 01:34:36;;;;;;;81.22;51.75;;;;;;;3.90;100.00;100204.81;5052357;28;20025;-88
2022/11/26 01:37:01;;;;;;;90.40;52.63;;;;;;;3.91;100.00;100210.81;5035945;28;20497;-88
2022/11/26 01:39:26;;;;;;;70.45;47.22;;;;;;;3.87;100.00;100204.84;5015676;28;20017;-88
2022/11/26 01:42:13;;;;;;;71.13;46.47;;;;;;;3.94;100.00;100206.47;5033027;28;20030;-89
2022/11/26 01:44:38;;;;;;;67.78;44.53;;;;;;;3.94;100.00;100210.78;5033261;28;20045;-88
2022/11/26 01:47:26;;;;;;;61.20;40.92;;;;;;;3.88;100.00;100208.28;5015343;28;20056;-89
2022/11/26 01:50:45;;;;;;;60.28;37.15;;;;;;;3.95;100.00;100212.50;5014813;28;20025;-88
2022/11/26 01:53:29;;;;;;;49.42;33.63;;;;;;;3.96;100.00;100220.22;4955509;28;20434;-88
2022/11/26 01:56:00;;;;;;;56.92;36.53;;;;;;;3.91;100.00;100214.25;4971649;28;20038;-88
2022/11/26 01:58:36;;;;;;;55.70;36.75;;;;;;;3.97;100.00;100223.66;4971805;28;20121;-88
2022/11/26 02:01:01;;;;;;;63.72;39.55;;;;;;;3.86;100.00;100195.41;4955263;28;20406;-89
2022/11/26 02:03:30;;;;;;;61.90;41.92;;;;;;;3.98;100.00;100209.88;4971558;28;20038;-88
2022/11/26 02:06:04;;;;;;;64.78;41.08;;;;;;;3.96;100.00;100215.06;4971527;28;20027;-88
2022/11/26 02:08:31;;;;;;;68.82;43.92;;;;;;;3.95;100.00;100217.66;4971930;28;20039;-89
2022/11/26 02:10:57;;;;;;;70.72;44.70;;;;;;;3.94;100.00;100216.78;4971437;28;20019;-89
2022/11/26 02:13:23;;;;;;;69.38;45.20;;;;;;;3.99;100.00;100230.47;4971484;28;20062;-89
2022/11/26 02:16:00;;;;;;;66.00;42.90;;;;;;;3.98;100.00;100226.19;4971246;28;20109;-89
2022/11/26 02:18:33;;;;;;;74.85;45.42;;;;;;;3.94;100.00;100221.94;4971378;28;20022;-88
2022/11/26 02:21:04;;;;;;;75.22;47.35;;;;;;;3.90;100.00;100219.41;4971147;28;20169;-89
2022/11/26 02:23:51;;;;;;;77.60;48.25;;;;;;;3.98;100.00;100223.63;4971410;28;20041;-89
2022/11/26 02:26:47;;;;;;;73.07;47.30;;;;;;;3.98;100.00;100233.94;4963235;28;20033;-89
2022/11/26 02:29:20;;;;;;;77.18;48.65;;;;;;;3.92;100.00;100221.13;5032470;28;20017;-89
2022/11/26 02:32:15;;;;;;;73.43;45.88;;;;;;;3.94;100.00;100231.41;5032708;28;20064;-89
2022/11/26 02:35:11;;;;;;;78.32;47.92;;;;;;;3.98;100.00;100235.66;5032454;28;20043;-89
2022/11/26 02:37:46;;;;;;;73.15;46.80;;;;;;;3.91;100.00;100228.84;5014791;28;20465;-88
2022/11/26 02:40:11;;;;;;;69.55;44.88;;;;;;;3.95;100.00;100233.97;5032075;28;20368;-89
2022/11/26 02:42:36;;;;;;;68.97;43.08;;;;;;;3.94;100.00;100233.97;5014434;28;20025;-88
2022/11/26 02:45:10;;;;;;;62.50;40.33;;;;;;;3.85;100.00;100231.50;5014260;28;20049;-89
2022/11/26 02:47:38;;;;;;;60.97;40.75;;;;;;;3.93;100.00;100235.72;5014569;28;20457;-89
2022/11/26 02:50:14;;;;;;;65.72;42.58;;;;;;;3.92;100.00;100239.16;5032416;28;20033;-88
2022/11/26 02:52:42;;;;;;;67.93;41.63;;;;;;;3.93;100.00;100237.44;5014516;28;20026;-89
2022/11/26 02:55:10;;;;;;;62.90;40.08;;;;;;;3.91;100.00;100234.84;5031890;28;20052;-89
2022/11/26 02:57:44;;;;;;;61.67;38.53;;;;;;;3.89;100.00;100238.34;5032020;28;20029;-88
2022/11/26 03:00:10;;;;;;;60.20;39.95;;;;;;;3.89;100.00;100240.91;5014227;28;20021;-88
2022/11/26 03:02:46;;;;;;;61.17;39.78;;;;;;;3.78;100.00;100227.28;5030917;28;20426;-89
2022/11/26 03:05:15;;;;;;;63.05;43.10;;;;;;;3.89;100.00;100246.06;5014120;28;20029;-89
2022/11/26 03:07:42;;;;;;;66.93;42.97;;;;;;;3.86;100.00;100241.78;5014204;28;20465;-88
2022/11/26 03:10:08;;;;;;;66.60;43.20;;;;;;;3.85;100.00;100240.09;5031717;28;20543;-88
2022/11/26 03:12:33;;;;;;;65.68;42.75;;;;;;;3.87;100.00;100243.47;5014290;28;20068;-88
2022/11/26 03:14:58;;;;;;;67.28;41.50;;;;;;;3.80;100.00;100236.72;5013993;28;20120;-88
2022/11/26 03:17:24;;;;;;;69.07;40.45;;;;;;;3.92;100.00;100257.19;5014239;28;20055;-88
2022/11/26 03:19:49;;;;;;;64.20;41.97;;;;;;;3.88;100.00;100247.78;5032055;28;20022;-88
2022/11/26 03:22:15;;;;;;;59.20;39.58;;;;;;;3.86;100.00;100251.25;5013781;28;20120;-88
2022/11/26 03:24:40;;;;;;;68.50;44.20;;;;;;;3.84;100.00;100245.25;5013880;28;20026;-88
2022/11/26 03:27:06;;;;;;;73.45;45.80;;;;;;;3.91;100.00;100260.63;5014037;28;20025;-88
2022/11/26 03:29:31;;;;;;;67.22;42.40;;;;;;;3.82;100.00;100255.56;5031907;28;20473;-89
2022/11/26 03:31:57;;;;;;;67.20;43.33;;;;;;;3.83;100.00;100251.25;5013767;28;20061;-88
2022/11/26 03:34:22;;;;;;;67.85;41.35;;;;;;;3.82;100.00;100252.13;5031628;28;20040;-88
2022/11/26 03:36:49;;;;;;;58.85;39.85;;;;;;;3.88;100.00;100260.69;5041047;28;20127;-89
2022/11/26 03:39:14;;;;;;;59.47;38.15;;;;;;;3.88;100.00;100264.97;5051185;28;20040;-89
2022/11/26 03:41:42;;;;;;;58.15;38.13;;;;;;;3.92;100.00;100270.09;5050491;28;20025;-88
2022/11/26 03:44:09;;;;;;;62.15;41.58;;;;;;;3.97;100.00;100270.03;5050196;28;20416;-89
2022/11/26 03:46:34;;;;;;;71.10;43.15;;;;;;;3.99;100.00;100268.28;5051615;28;20029;-88
2022/11/26 03:48:59;;;;;;;61.40;40.65;;;;;;;4.01;100.00;100264.00;5051839;28;20340;-88
2022/11/26 03:51:25;;;;;;;63.28;40.78;;;;;;;4.06;100.00;100267.38;5050143;28;20029;-87
2022/11/26 03:53:50;;;;;;;67.00;40.45;;;;;;;4.05;100.00;100270.81;5051635;28;20025;-88
2022/11/26 03:56:15;;;;;;;62.92;39.97;;;;;;;4.02;100.00;100272.56;5051350;28;20025;-88
2022/11/26 03:58:41;;;;;;;60.83;39.83;;;;;;;3.97;100.00;100260.59;5050302;28;20067;-89
2022/11/26 04:01:11;;;;;;;61.60;40.17;;;;;;;4.10;100.00;100286.25;5049854;28;20071;-89
2022/11/26 04:03:37;;;;;;;64.47;41.65;;;;;;;4.10;100.00;100281.09;5051433;28;20064;-89
2022/11/26 04:06:04;;;;;;;61.72;40.90;;;;;;;4.11;100.00;100280.22;5049830;28;20205;-89
2022/11/26 04:08:29;;;;;;;68.10;42.03;;;;;;;4.05;100.00;100273.41;5051281;28;20032;-88
2022/11/26 04:10:54;;;;;;;61.70;38.58;;;;;;;4.14;100.00;100286.19;5050230;28;20024;-89
2022/11/26 04:13:20;;;;;;;59.08;37.30;;;;;;;4.08;100.00;100281.06;5051999;28;20051;-89
2022/11/26 04:15:47;;;;;;;54.63;36.42;;;;;;;4.12;100.00;100272.44;5052308;28;20037;-89
2022/11/26 04:18:12;;;;;;;56.63;37.30;;;;;;;4.13;100.00;100284.50;5052182;28;20486;-88
2022/11/26 04:20:37;;;;;;;58.75;35.67;;;;;;;4.14;100.00;100290.50;5052208;28;20124;-88
2022/11/26 04:23:03;;;;;;;61.20;36.22;;;;;;;4.20;100.00;100298.16;5051899;28;20029;-88
2022/11/26 04:25:28;;;;;;;59.00;34.70;;;;;;;4.15;100.00;100282.72;5052137;28;20032;-89
2022/11/26 04:27:53;;;;;;;56.80;33.22;;;;;;;4.12;100.00;100281.91;5052030;28;20032;-88
2022/11/26 04:30:19;;;;;;;53.20;33.90;;;;;;;4.17;100.00;100291.31;5035158;28;20033;-89
2022/11/26 04:32:44;;;;;;;55.30;34.28;;;;;;;4.14;100.00;100285.34;5051952;28;20021;-88
2022/11/26 04:35:10;;;;;;;56.85;33.97;;;;;;;4.20;100.00;100298.16;5051545;28;20033;-88
2022/11/26 04:37:35;;;;;;;57.10;33.45;;;;;;;4.20;100.00;100303.31;5035393;28;20115;-88
2022/11/26 04:40:00;;;;;;;61.28;34.65;;;;;;;4.23;100.00;100313.59;5051790;28;20029;-89
2022/11/26 04:42:26;;;;;;;59.03;33.72;;;;;;;4.18;100.00;100294.75;5051897;28;20028;-88
2022/11/26 04:44:51;;;;;;;59.80;32.55;;;;;;;4.25;100.00;100307.53;5052082;28;20082;-88
2022/11/26 04:47:17;;;;;;;53.72;31.67;;;;;;;4.22;100.00;100307.59;5034880;28;20116;-88
2022/11/26 04:49:42;;;;;;;57.67;33.13;;;;;;;4.21;100.00;100311.06;5052009;28;20068;-88
2022/11/26 04:52:07;;;;;;;54.75;31.00;;;;;;;4.21;100.00;100308.47;5051648;28;20423;-88
2022/11/26 04:54:33;;;;;;;60.45;33.70;;;;;;;4.24;100.00;100311.00;5052126;28;20417;-88
2022/11/26 04:56:58;;;;;;;58.00;34.92;;;;;;;4.26;100.00;100316.16;5051778;28;20558;-88
2022/11/26 04:59:23;;;;;;;57.97;34.95;;;;;;;4.24;100.00;100321.31;5051825;28;20025;-88
2022/11/26 05:01:49;;;;;;;58.33;35.53;;;;;;;4.25;100.00;100323.00;5051748;28;20488;-88
2022/11/26 05:04:14;;;;;;;61.65;34.88;;;;;;;4.20;100.00;100305.88;5052564;28;20071;-88
2022/11/26 05:06:39;;;;;;;58.58;33.50;;;;;;;4.20;100.00;100311.91;5052714;28;20052;-88
2022/11/26 05:09:05;;;;;;;56.38;33.65;;;;;;;4.30;100.00;100327.28;5052580;28;20475;-88
2022/11/26 05:11:30;;;;;;;63.70;35.70;;;;;;;4.20;100.00;100311.91;5052777;28;20460;-88
2022/11/26 05:13:56;;;;;;;56.17;33.90;;;;;;;4.29;100.00;100331.56;5054007;28;20021;-88
2022/11/26 05:16:21;;;;;;;56.13;33.80;;;;;;;4.32;100.00;100331.56;5050931;28;20453;-88
2022/11/26 05:18:46;;;;;;;57.92;34.55;;;;;;;4.27;100.00;100323.00;5051204;28;20112;-88
2022/11/26 05:21:12;;;;;;;55.90;34.05;;;;;;;4.33;100.00;100330.69;5050925;28;20446;-88
2022/11/26 05:23:37;;;;;;;64.25;35.83;;;;;;;4.38;100.00;100344.41;5031039;28;20477;-88
2022/11/26 05:26:03;;;;;;;55.35;35.10;;;;;;;4.36;100.00;100335.81;5030083;28;20084;-88
2022/11/26 05:28:28;;;;;;;56.20;33.35;;;;;;;4.37;100.00;100345.25;5031396;28;20055;-88
2022/11/26 05:31:00;;;;;;;56.88;34.47;;;;;;;4.40;100.00;100349.53;5031059;28;20116;-88
2022/11/26 05:33:26;;;;;;;56.97;34.17;;;;;;;4.40;100.00;100350.38;5031098;28;20029;-88
2022/11/26 05:35:51;;;;;;;61.60;34.63;;;;;;;4.35;100.00;100343.56;5030998;28;20124;-88
2022/11/26 05:38:17;;;;;;;61.53;35.83;;;;;;;4.38;100.00;100351.25;5030800;28;20502;-88
2022/11/26 05:40:42;;;;;;;56.30;35.30;;;;;;;4.41;100.00;100352.09;5014320;28;20124;-88
2022/11/26 05:43:07;;;;;;;52.40;32.47;;;;;;;4.44;100.00;100359.81;5030504;28;20033;-88
2022/11/26 05:45:33;;;;;;;55.55;33.00;;;;;;;4.41;100.00;100354.66;5014373;28;20047;-88
2022/11/26 05:47:58;;;;;;;56.13;34.42;;;;;;;4.42;100.00;100355.50;5045969;28;20048;-89
2022/11/26 05:50:24;;;;;;;55.63;34.17;;;;;;;4.47;100.00;100362.34;5050327;28;20092;-88
2022/11/26 05:52:49;;;;;;;62.38;33.67;;;;;;;4.45;100.00;100364.09;5050624;28;20060;-88
2022/11/26 05:55:15;;;;;;;55.90;34.20;;;;;;;4.51;100.00;100370.94;5050356;28;20041;-88
2022/11/26 05:57:41;;;;;;;61.30;35.97;;;;;;;4.49;100.00;100370.91;5050492;28;20075;-88
2022/11/26 06:00:07;;;;;;;62.50;41.08;;;;;;;4.44;100.00;100364.09;5050536;28;20024;-88
2022/11/26 06:02:33;;;;;;;69.60;45.08;;;;;;;4.46;100.00;100370.09;5051547;28;20025;-88
2022/11/26 06:04:58;;;;;;;73.38;44.40;;;;;;;4.53;100.00;100384.66;5051493;28;20460;-88
2022/11/26 06:07:23;;;;;;;79.07;49.25;;;;;;;4.54;100.00;100376.03;5051144;28;20017;-88
2022/11/26 06:09:49;;;;;;;83.35;48.47;;;;;;;4.51;100.00;100376.09;5051670;28;20025;-88
2022/11/26 06:12:14;;;;;;;82.13;51.03;;;;;;;4.51;100.00;100381.25;5051422;28;20101;-88
2022/11/26 06:14:39;;;;;;;78.25;50.72;;;;;;;4.53;100.00;100381.22;5052670;28;20372;-88
2022/11/26 06:17:05;;;;;;;71.18;45.38;;;;;;;4.45;100.00;100374.41;5051035;28;20387;-88
2022/11/26 06:19:30;;;;;;;72.82;44.67;;;;;;;4.45;100.00;100370.97;5051236;28;20074;-88
2022/11/26 06:21:55;;;;;;;73.03;46.63;;;;;;;4.51;100.00;100391.56;5050959;28;20060;-88
2022/11/26 06:24:21;;;;;;;69.32;44.70;;;;;;;4.49;100.00;100388.13;5052218;28;20131;-88
2022/11/26 06:26:46;;;;;;;77.65;45.40;;;;;;;4.54;100.00;100399.25;5051154;28;20025;-88
2022/11/26 06:29:12;;;;;;;67.82;43.20;;;;;;;4.54;100.00;100412.16;5052314;28;20024;-88
2022/11/26 06:31:37;;;;;;;67.93;42.08;;;;;;;4.52;100.00;100397.56;5051006;28;20489;-88
2022/11/26 06:34:02;;;;;;;68.35;41.30;;;;;;;4.53;100.00;100404.44;5051074;28;20036;-88
2022/11/26 06:36:28;;;;;;;56.97;36.38;;;;;;;4.61;100.00;100411.22;5038970;28;20473;-87
2022/11/26 06:38:53;;;;;;;54.47;33.83;;;;;;;4.65;100.00;100412.91;5032482;28;20036;-87
2022/11/26 06:41:19;;;;;;;54.67;33.20;;;;;;;4.67;100.00;100418.03;5032191;28;20343;-87
2022/11/26 06:43:44;;;;;;;52.97;33.45;;;;;;;4.67;100.00;100413.72;5032681;28;20049;-87
2022/11/26 06:46:10;;;;;;;47.55;30.77;;;;;;;4.73;100.00;100425.72;5032121;28;20101;-87
2022/11/26 06:48:36;;;;;;;45.75;28.40;;;;;;;4.77;100.00;100431.72;5032156;28;20032;-87
2022/11/26 06:51:07;;;;;;;39.85;25.10;;;;;;;4.81;100.00;100439.41;5032053;28;20477;-87
2022/11/26 06:53:33;;;;;;;34.03;22.63;;;;;;;4.74;100.00;100417.97;5032337;28;20037;-87
2022/11/26 06:56:03;;;;;;;32.50;21.52;;;;;;;4.78;100.00;100423.09;5032601;28;20018;-87
2022/11/26 06:58:28;;;;;;;30.02;20.92;;;;;;;4.88;100.00;100441.03;5031909;28;20029;-87
2022/11/26 07:00:54;;;;;;;27.27;18.33;;;;;;;4.90;100.00;100441.91;5014432;28;20018;-87
2022/11/26 07:03:19;;;;;;;29.33;20.33;;;;;;;4.95;100.00;100447.84;5009303;28;20134;-87
2022/11/26 07:05:45;;;;;;;27.80;19.65;;;;;;;4.97;100.00;100446.13;4993371;28;20034;-87
2022/11/26 07:08:10;;;;;;;29.58;17.55;;;;;;;5.05;100.00;100458.06;4993092;28;20120;-87
2022/11/26 07:10:35;;;;;;;21.52;14.90;;;;;;;5.04;100.00;100443.47;5009880;28;20017;-87
2022/11/26 07:13:01;;;;;;;16.98;13.45;;;;;;;5.00;100.00;100433.16;4993291;28;20207;-87
2022/11/26 07:15:26;;;;;;;20.13;14.55;;;;;;;5.05;100.00;100445.16;5009544;28;20029;-87
2022/11/26 07:17:51;;;;;;;18.25;13.27;;;;;;;5.15;100.00;100454.53;5009773;28;20034;-87
2022/11/26 07:20:17;;;;;;;18.55;11.65;;;;;;;5.20;100.00;100465.66;5009530;28;20547;-88
2022/11/26 07:22:42;;;;;;;17.55;11.27;;;;;;;5.17;100.00;100456.22;5013143;28;20041;-87
2022/11/26 07:25:08;;;;;;;16.08;12.32;;;;;;;5.29;100.00;100475.03;5029283;28;20021;-87
2022/11/26 07:27:33;;;;;;;16.55;11.27;;;;;;;5.25;100.00;100458.69;5012576;28;20064;-86
2022/11/26 07:29:59;;;;;;;15.15;10.88;;;;;;;5.35;100.00;100473.25;5029181;28;20030;-86
2022/11/26 07:32:25;;;;;;;15.65;11.23;;;;;;;5.32;100.00;100462.09;5029061;28;20534;-86
2022/11/26 07:34:51;;;;;;;14.70;10.15;;;;;;;5.45;100.00;100474.81;5045164;28;20037;-86
2022/11/26 07:37:16;;;;;;;15.43;9.68;;;;;;;5.51;100.00;100472.16;5059409;28;20430;-86
2022/11/26 07:39:41;;;;;;;13.18;9.88;;;;;;;5.50;100.00;100472.19;5053728;28;20016;-86
2022/11/26 07:42:07;;;;;;;12.82;9.90;;;;;;;5.56;100.00;100472.09;5071542;28;20103;-87
2022/11/26 07:44:32;;;;;;;14.02;10.13;;;;;;;5.67;100.00;100488.31;5071707;28;20025;-87
2022/11/26 07:46:57;;;;;;;13.57;9.30;;;;;;;5.58;100.00;100465.19;5071529;28;20083;-86
2022/11/26 07:49:23;;;;;;;13.88;10.07;;;;;;;5.63;100.00;100478.03;5055706;28;20027;-86
2022/11/26 07:51:48;;;;;;;14.43;10.63;;;;;;;5.74;100.00;100497.72;5075563;28;20028;-86
2022/11/26 07:54:13;;;;;;;19.80;13.73;;;;;;;5.73;100.00;100493.41;5074824;28;20048;-87
2022/11/26 07:56:39;;;;;;;34.50;16.92;;;;;;;5.76;100.00;100501.09;5057278;28;20024;-86
2022/11/26 07:59:04;;;;;;;26.55;16.55;;;;;;;5.80;100.00;100509.69;5057090;28;20024;-86
2022/11/26 08:01:30;;;;;;;19.58;13.00;;;;;;;5.71;100.00;100486.53;5074820;28;20382;-86
2022/11/26 08:03:56;;;;;;;12.27;8.93;;;;;;;5.74;100.00;100495.13;5056937;28;20517;-86
2022/11/26 08:06:24;;;;;;;13.35;9.25;;;;;;;5.78;100.00;100503.69;5056998;28;20021;-86
2022/11/26 08:08:50;;;;;;;11.05;8.50;;;;;;;5.80;100.00;100506.25;5074976;28;20023;-86
2022/11/26 08:11:19;;;;;;;9.20;7.65;;;;;;;5.83;100.00;100509.66;5074597;28;20382;-86
2022/11/26 08:13:45;;;;;;;9.23;6.88;;;;;;;5.86;100.00;100514.78;5056734;28;20019;-86
2022/11/26 08:16:11;;;;;;;9.25;7.43;;;;;;;5.87;100.00;100519.06;5074803;28;20431;-86
2022/11/26 08:18:36;;;;;;;7.95;7.05;;;;;;;5.85;100.00;100518.22;5056756;28;20111;-86
2022/11/26 08:21:02;;;;;;;10.10;7.53;;;;;;;5.79;100.00;100505.41;5074843;28;20028;-86
2022/11/26 08:23:29;;;;;;;10.77;7.63;;;;;;;5.83;100.00;100514.81;5074442;28;20032;-86
2022/11/26 08:25:54;;;;;;;9.15;7.25;;;;;;;5.91;100.00;100527.66;5056752;28;20441;-85
2022/11/26 08:28:20;;;;;;;8.68;6.93;;;;;;;5.84;100.00;100508.78;5056376;28;20062;-85
2022/11/26 08:30:45;;;;;;;8.48;7.28;;;;;;;5.90;100.00;100531.09;5074603;28;20340;-85
2022/11/26 08:33:11;;;;;;;10.80;8.00;;;;;;;5.86;100.00;100535.47;5056339;28;20025;-85
2022/11/26 08:35:36;;;;;;;9.40;8.43;;;;;;;5.76;100.00;100528.69;5031245;28;20033;-85
2022/11/26 08:38:02;;;;;;;12.77;9.13;;;;;;;5.69;100.00;100533.09;5015523;28;20040;-85
2022/11/26 08:40:27;;;;;;;11.70;8.77;;;;;;;5.64;100.00;100527.13;5032252;28;20497;-85
2022/11/26 08:42:53;;;;;;;10.90;8.40;;;;;;;5.65;100.00;100543.50;5027290;28;20063;-87
2022/11/26 08:45:18;;;;;;;11.40;9.57;;;;;;;5.60;100.00;100548.69;4992397;28;20038;-86
2022/11/26 08:47:43;;;;;;;13.52;9.27;;;;;;;5.62;100.00;100546.13;4992736;28;20516;-86
2022/11/26 08:50:09;;;;;;;12.93;9.57;;;;;;;5.66;100.00;100552.97;4992430;28;20030;-87
2022/11/26 08:52:35;;;;;;;10.23;8.65;;;;;;;5.67;100.00;100559.81;4992710;28;20524;-90
2022/11/26 08:55:00;;;;;;;10.68;9.43;;;;;;;5.63;100.00;100563.31;4992262;28;20085;-90
2022/11/26 08:57:26;;;;;;;11.60;9.68;;;;;;;5.71;100.00;100561.50;4976004;28;20033;-91
2022/11/26 08:59:53;;;;;;;11.65;9.27;;;;;;;5.70;100.00;100555.47;4974968;28;20545;-91
2022/11/26 09:02:19;;;;;;;12.75;10.02;;;;;;;5.70;100.00;100571.00;4975499;28;20033;-91
2022/11/26 09:04:45;;;;;;;11.25;9.50;;;;;;;5.64;100.00;100563.28;4976119;28;20030;-89
2022/11/26 09:07:10;;;;;;;12.65;10.05;;;;;;;5.75;100.00;100576.94;5005727;28;20436;-89
2022/11/26 09:09:36;;;;;;;12.20;9.95;;;;;;;5.71;100.00;100577.88;5016146;28;20511;-89
2022/11/26 09:12:01;;;;;;;13.75;11.13;;;;;;;5.68;100.00;100583.06;5016395;28;20022;-91
2022/11/26 09:14:29;;;;;;;17.00;11.93;;;;;;;5.73;100.00;100577.84;5015873;28;20057;-91
2022/11/26 09:16:56;;;;;;;15.23;12.00;;;;;;;5.73;100.00;100577.84;5033804;28;20075;-90
2022/11/26 09:19:23;;;;;;;15.90;12.27;;;;;;;5.67;100.00;100580.50;5015985;28;20029;-91
2022/11/26 09:21:48;;;;;;;16.75;12.65;;;;;;;5.65;100.00;100588.28;5032591;28;20021;-89
2022/11/26 09:24:16;;;;;;;16.13;12.63;;;;;;;5.72;100.00;100584.75;5033790;28;20067;-91
2022/11/26 09:26:41;;;;;;;15.45;13.65;;;;;;;5.78;100.00;100591.59;5033839;28;20017;-90
2022/11/26 09:29:07;;;;;;;25.17;15.05;;;;;;;5.73;100.00;100589.06;5015850;28;20033;-90
2022/11/26 09:31:32;;;;;;;17.45;14.02;;;;;;;5.63;100.00;100596.91;5031918;28;20025;-91
2022/11/26 09:34:00;;;;;;;18.55;14.10;;;;;;;5.65;100.00;100597.78;5032569;28;20358;-92
2022/11/26 09:36:26;;;;;;;16.13;13.88;;;;;;;5.66;100.00;100596.91;5037216;28;20045;-93
2022/11/26 09:38:59;;;;;;;16.67;14.23;;;;;;;5.59;100.00;100585.75;5053221;28;20025;-93
2022/11/26 09:41:31;;;;;;;14.60;12.10;;;;;;;5.65;100.00;100603.78;5052163;28;20074;-92
2022/11/26 09:44:27;;;;;;;21.38;14.45;;;;;;;5.55;100.00;100598.72;5052365;28;20064;-92
2022/11/26 09:46:58;;;;;;;15.40;12.68;;;;;;;5.58;100.00;100604.72;5052130;28;20541;-93
2022/11/26 09:49:27;;;;;;;35.70;27.17;;;;;;;5.55;100.00;100601.31;5051578;28;20078;-91
2022/11/26 09:52:14;;;;;;;27.10;20.25;;;;;;;5.34;100.00;100587.75;5052232;28;20017;-91
2022/11/26 09:55:00;;;;;;;29.13;21.08;;;;;;;5.39;100.00;100598.88;5014535;28;20065;-93
2022/11/26 09:57:49;;;;;;;21.63;17.50;;;;;;;5.52;100.00;100617.72;4961907;28;20034;-93
2022/11/26 10:00:45;;;;;;;30.15;22.20;;;;;;;5.34;100.00;100607.56;4974889;28;20125;-94
2022/11/26 10:03:37;;;;;;;36.90;24.73;;;;;;;5.43;100.00;100617.78;4916342;29;20068;-95
2022/11/26 10:06:40;;;;;;;24.73;19.50;;;;;;;5.45;100.00;100616.91;4899538;29;20117;-90
2022/11/26 10:09:14;;;;;;;32.25;24.17;;;;;;;5.43;100.00;100620.38;4876670;29;20105;-89
2022/11/26 10:11:59;;;;;;;31.02;26.38;;;;;;;5.38;100.00;100617.00;4876017;29;20089;-89
2022/11/26 10:14:37;;;;;;;44.42;32.70;;;;;;;5.30;100.00;100639.44;4889183;29;20032;-88
2022/11/26 10:17:20;;;;;;;36.45;26.75;;;;;;;5.26;100.00;100628.28;4879769;29;20179;-89
2022/11/26 10:19:57;;;;;;;37.20;28.30;;;;;;;5.36;100.00;100637.69;4879757;29;20084;-88
2022/11/26 10:22:44;;;;;;;38.13;27.60;;;;;;;5.23;100.00;100616.28;4857273;29;20089;-90
2022/11/26 10:25:22;;;;;;;39.35;29.88;;;;;;;5.33;100.00;100636.84;4868835;29;20048;-90
2022/11/26 10:27:48;;;;;;;36.95;26.90;;;;;;;5.29;100.00;100643.78;4889842;29;20103;-89
2022/11/26 10:30:25;;;;;;;36.35;26.33;;;;;;;5.19;100.00;100640.41;4902558;29;20040;-87
2022/11/26 10:32:52;;;;;;;35.10;26.90;;;;;;;5.25;100.00;100645.53;4894974;29;20032;-89
2022/11/26 10:35:24;;;;;;;33.70;25.98;;;;;;;5.29;100.00;100656.69;4894708;29;20084;-89
2022/11/26 10:37:50;;;;;;;32.15;24.83;;;;;;;5.34;100.00;100654.06;4879349;29;20516;-91
2022/11/26 10:40:24;;;;;;;37.78;27.92;;;;;;;5.34;100.00;100651.47;4899955;29;20043;-93
2022/11/26 10:43:07;;;;;;;45.20;32.28;;;;;;;5.28;100.00;100652.41;4932519;29;20383;-93
2022/11/26 10:45:44;;;;;;;47.15;32.53;;;;;;;5.21;100.00;100650.72;4932254;29;20031;-88
2022/11/26 10:48:19;;;;;;;53.83;38.22;;;;;;;5.23;100.00;100657.59;4932536;29;20039;-89
2022/11/26 10:51:03;;;;;;;84.22;53.50;;;;;;;5.23;100.00;100661.91;4932070;29;20040;-90
2022/11/26 10:53:33;;;;;;;40.58;31.55;;;;;;;5.02;100.00;100626.81;4963001;28;20045;-88
2022/11/26 10:56:04;;;;;;;39.15;29.38;;;;;;;5.17;100.00;100662.81;4970746;28;20035;-91
2022/11/26 10:58:38;;;;;;;43.22;30.17;;;;;;;5.04;100.00;100660.34;4970872;28;20565;-92
2022/11/26 11:01:05;;;;;;;48.67;33.60;;;;;;;5.00;100.00;100662.94;5019928;28;20497;-89
2022/11/26 11:03:46;;;;;;;62.72;40.28;;;;;;;5.05;100.00;100672.38;5029132;28;20017;-90
2022/11/26 11:06:17;;;;;;;59.03;38.85;;;;;;;5.07;100.00;100675.81;5013027;28;20076;-89
2022/11/26 11:08:43;;;;;;;55.38;36.15;;;;;;;4.99;100.00;100655.22;5012782;28;20124;-91
2022/11/26 11:11:17;;;;;;;47.70;35.13;;;;;;;5.04;100.00;100671.53;5013071;28;20072;-89
2022/11/26 11:13:46;;;;;;;46.67;34.47;;;;;;;4.93;100.00;100675.91;5012766;28;20037;-90
2022/11/26 11:16:13;;;;;;;43.63;33.47;;;;;;;4.90;100.00;100669.06;5013276;28;20366;-89